Luhans'K, Ukraine
Current Conditions -  °F | °C
As of 5:00 PM on Monday 24 Nov 2014 (Local Time) from URRR Reporting Station
Overcast Overcast  
Wind Chill: 13°   Ceiling: 1500
Heat Index: 27°   Visibility: 5mi
Dew Point: 21°   Wind: 20mph
Humidity: 80%   Direction: 90°E
Pressure: 30.53"   Gusts: 29mph
Location:  48.57°N, 39.32°E
Report Text: URRR 241400Z 09009G13MPS P8000 OVC015 M03/M06 Q1034 04CLRD70NOSIG
Loading
Personal Weather Stations






























Interactive Weather Map New forecast layout! Learn more

10-Day Weather Forecast

Advertisements
Track Severe Weather on mobile